sensor_id;sensor_type;location;lat;lon;timestamp;P1;durP1;ratioP1;P2;durP2;ratioP2
29634;SDS011;16557;54.762;56.068;2023-05-20T00:00:35;9.03;;;2.52;;
29634;SDS011;16557;54.762;56.068;2023-05-20T00:03:15;9.30;;;2.50;;
29634;SDS011;16557;54.762;56.068;2023-05-20T00:06:02;6.55;;;2.30;;
29634;SDS011;16557;54.762;56.068;2023-05-20T00:08:48;6.12;;;2.20;;
29634;SDS011;16557;54.762;56.068;2023-05-20T00:11:32;3.95;;;2.00;;
29634;SDS011;16557;54.762;56.068;2023-05-20T00:14:11;8.35;;;2.47;;
29634;SDS011;16557;54.762;56.068;2023-05-20T00:16:57;4.42;;;2.08;;
29634;SDS011;16557;54.762;56.068;2023-05-20T00:19:37;10.35;;;2.52;;
29634;SDS011;16557;54.762;56.068;2023-05-20T00:22:17;9.43;;;2.42;;
29634;SDS011;16557;54.762;56.068;2023-05-20T00:24:57;7.83;;;2.00;;
29634;SDS011;16557;54.762;56.068;2023-05-20T00:27:36;8.83;;;2.47;;
29634;SDS011;16557;54.762;56.068;2023-05-20T00:30:20;3.92;;;2.12;;
29634;SDS011;16557;54.762;56.068;2023-05-20T00:33:05;9.93;;;2.58;;
29634;SDS011;16557;54.762;56.068;2023-05-20T00:35:45;8.88;;;2.45;;
29634;SDS011;16557;54.762;56.068;2023-05-20T00:38:25;10.20;;;2.35;;
29634;SDS011;16557;54.762;56.068;2023-05-20T00:41:14;4.37;;;2.25;;
29634;SDS011;16557;54.762;56.068;2023-05-20T00:43:54;5.35;;;2.00;;
29634;SDS011;16557;54.762;56.068;2023-05-20T00:46:38;10.53;;;2.40;;
29634;SDS011;16557;54.762;56.068;2023-05-20T00:49:18;9.70;;;2.35;;
29634;SDS011;16557;54.762;56.068;2023-05-20T00:51:58;7.40;;;2.27;;
29634;SDS011;16557;54.762;56.068;2023-05-20T00:54:39;9.13;;;2.70;;
29634;SDS011;16557;54.762;56.068;2023-05-20T00:57:20;9.20;;;2.58;;
29634;SDS011;16557;54.762;56.068;2023-05-20T01:00:01;5.65;;;2.75;;
29634;SDS011;16557;54.762;56.068;2023-05-20T01:02:41;9.33;;;2.35;;
29634;SDS011;16557;54.762;56.068;2023-05-20T01:05:27;11.12;;;3.20;;
29634;SDS011;16557;54.762;56.068;2023-05-20T01:08:07;8.90;;;2.25;;
29634;SDS011;16557;54.762;56.068;2023-05-20T01:10:53;11.00;;;2.47;;
29634;SDS011;16557;54.762;56.068;2023-05-20T01:13:50;9.53;;;2.37;;
29634;SDS011;16557;54.762;56.068;2023-05-20T01:16:31;4.87;;;2.35;;
29634;SDS011;16557;54.762;56.068;2023-05-20T01:19:21;9.65;;;2.77;;
29634;SDS011;16557;54.762;56.068;2023-05-20T01:22:14;13.10;;;2.67;;
29634;SDS011;16557;54.762;56.068;2023-05-20T01:24:58;14.53;;;2.75;;
29634;SDS011;16557;54.762;56.068;2023-05-20T01:27:39;8.08;;;2.75;;
29634;SDS011;16557;54.762;56.068;2023-05-20T01:30:19;11.00;;;2.30;;
29634;SDS011;16557;54.762;56.068;2023-05-20T01:33:00;9.60;;;2.90;;
29634;SDS011;16557;54.762;56.068;2023-05-20T01:35:50;11.90;;;2.47;;
29634;SDS011;16557;54.762;56.068;2023-05-20T01:38:29;8.35;;;2.70;;
29634;SDS011;16557;54.762;56.068;2023-05-20T01:41:10;9.00;;;2.47;;
29634;SDS011;16557;54.762;56.068;2023-05-20T01:43:52;10.20;;;2.65;;
29634;SDS011;16557;54.762;56.068;2023-05-20T01:46:38;13.75;;;3.10;;
29634;SDS011;16557;54.762;56.068;2023-05-20T01:49:17;7.72;;;3.22;;
29634;SDS011;16557;54.762;56.068;2023-05-20T01:51:57;7.90;;;2.62;;
29634;SDS011;16557;54.762;56.068;2023-05-20T01:54:37;8.63;;;2.90;;
29634;SDS011;16557;54.762;56.068;2023-05-20T01:57:17;6.78;;;3.17;;
29634;SDS011;16557;54.762;56.068;2023-05-20T02:00:00;16.15;;;2.92;;
29634;SDS011;16557;54.762;56.068;2023-05-20T02:02:40;9.08;;;2.50;;
29634;SDS011;16557;54.762;56.068;2023-05-20T02:05:20;14.25;;;3.20;;
29634;SDS011;16557;54.762;56.068;2023-05-20T02:08:01;11.85;;;3.05;;
29634;SDS011;16557;54.762;56.068;2023-05-20T02:10:46;14.15;;;3.20;;
29634;SDS011;16557;54.762;56.068;2023-05-20T02:13:27;6.60;;;2.77;;
29634;SDS011;16557;54.762;56.068;2023-05-20T02:16:08;14.80;;;3.72;;
29634;SDS011;16557;54.762;56.068;2023-05-20T02:18:48;10.48;;;3.47;;
29634;SDS011;16557;54.762;56.068;2023-05-20T02:21:30;7.42;;;3.20;;
29634;SDS011;16557;54.762;56.068;2023-05-20T02:24:11;7.60;;;3.92;;
29634;SDS011;16557;54.762;56.068;2023-05-20T02:26:51;9.78;;;3.60;;
29634;SDS011;16557;54.762;56.068;2023-05-20T02:29:32;11.57;;;4.05;;
29634;SDS011;16557;54.762;56.068;2023-05-20T02:32:12;9.93;;;2.95;;
29634;SDS011;16557;54.762;56.068;2023-05-20T02:34:51;7.35;;;2.75;;
29634;SDS011;16557;54.762;56.068;2023-05-20T02:37:40;10.43;;;2.60;;
29634;SDS011;16557;54.762;56.068;2023-05-20T02:40:25;7.35;;;2.87;;
29634;SDS011;16557;54.762;56.068;2023-05-20T02:43:05;12.43;;;2.72;;
29634;SDS011;16557;54.762;56.068;2023-05-20T02:45:44;6.80;;;2.60;;
29634;SDS011;16557;54.762;56.068;2023-05-20T02:48:30;11.38;;;3.47;;
29634;SDS011;16557;54.762;56.068;2023-05-20T02:51:10;16.40;;;2.98;;
29634;SDS011;16557;54.762;56.068;2023-05-20T02:53:49;13.40;;;3.35;;
29634;SDS011;16557;54.762;56.068;2023-05-20T02:56:29;8.50;;;2.85;;
29634;SDS011;16557;54.762;56.068;2023-05-20T02:59:09;9.08;;;2.80;;
29634;SDS011;16557;54.762;56.068;2023-05-20T03:01:50;12.23;;;3.45;;
29634;SDS011;16557;54.762;56.068;2023-05-20T03:04:36;12.60;;;3.80;;
29634;SDS011;16557;54.762;56.068;2023-05-20T03:07:20;7.40;;;4.05;;
29634;SDS011;16557;54.762;56.068;2023-05-20T03:10:02;9.03;;;3.62;;
29634;SDS011;16557;54.762;56.068;2023-05-20T03:12:47;9.73;;;3.70;;
29634;SDS011;16557;54.762;56.068;2023-05-20T03:15:27;12.70;;;4.70;;
29634;SDS011;16557;54.762;56.068;2023-05-20T03:18:07;18.82;;;5.12;;
29634;SDS011;16557;54.762;56.068;2023-05-20T03:20:46;11.85;;;5.22;;
29634;SDS011;16557;54.762;56.068;2023-05-20T03:23:26;12.37;;;4.55;;
29634;SDS011;16557;54.762;56.068;2023-05-20T03:26:09;13.75;;;4.78;;
29634;SDS011;16557;54.762;56.068;2023-05-20T03:28:48;14.30;;;5.30;;
29634;SDS011;16557;54.762;56.068;2023-05-20T03:31:34;13.98;;;4.62;;
29634;SDS011;16557;54.762;56.068;2023-05-20T03:34:14;13.32;;;4.78;;
29634;SDS011;16557;54.762;56.068;2023-05-20T03:36:53;12.70;;;5.47;;
29634;SDS011;16557;54.762;56.068;2023-05-20T03:39:38;15.55;;;6.00;;
29634;SDS011;16557;54.762;56.068;2023-05-20T03:42:25;7.37;;;5.00;;
29634;SDS011;16557;54.762;56.068;2023-05-20T03:45:09;14.65;;;5.80;;
29634;SDS011;16557;54.762;56.068;2023-05-20T03:47:49;12.30;;;6.12;;
29634;SDS011;16557;54.762;56.068;2023-05-20T03:50:29;17.25;;;6.15;;
29634;SDS011;16557;54.762;56.068;2023-05-20T03:53:08;9.83;;;4.80;;
29634;SDS011;16557;54.762;56.068;2023-05-20T03:55:50;17.90;;;5.53;;
29634;SDS011;16557;54.762;56.068;2023-05-20T03:58:39;11.33;;;4.70;;
29634;SDS011;16557;54.762;56.068;2023-05-20T04:01:20;20.62;;;5.40;;
29634;SDS011;16557;54.762;56.068;2023-05-20T04:04:07;11.65;;;4.87;;
29634;SDS011;16557;54.762;56.068;2023-05-20T04:06:57;17.52;;;4.87;;
29634;SDS011;16557;54.762;56.068;2023-05-20T04:09:45;12.37;;;5.35;;
29634;SDS011;16557;54.762;56.068;2023-05-20T04:12:30;25.10;;;4.85;;
29634;SDS011;16557;54.762;56.068;2023-05-20T04:15:12;12.70;;;4.85;;
29634;SDS011;16557;54.762;56.068;2023-05-20T04:17:51;21.57;;;9.20;;
29634;SDS011;16557;54.762;56.068;2023-05-20T04:20:32;10.20;;;5.33;;
29634;SDS011;16557;54.762;56.068;2023-05-20T04:23:12;14.93;;;6.35;;
29634;SDS011;16557;54.762;56.068;2023-05-20T04:25:55;21.17;;;6.92;;
29634;SDS011;16557;54.762;56.068;2023-05-20T04:28:37;16.97;;;5.55;;
29634;SDS011;16557;54.762;56.068;2023-05-20T04:31:26;18.73;;;4.92;;
29634;SDS011;16557;54.762;56.068;2023-05-20T04:34:09;16.37;;;3.90;;
29634;SDS011;16557;54.762;56.068;2023-05-20T04:36:49;30.30;;;6.55;;
29634;SDS011;16557;54.762;56.068;2023-05-20T04:39:28;57.93;;;9.43;;
29634;SDS011;16557;54.762;56.068;2023-05-20T04:42:14;29.57;;;5.45;;
29634;SDS011;16557;54.762;56.068;2023-05-20T04:44:55;10.32;;;3.98;;
29634;SDS011;16557;54.762;56.068;2023-05-20T04:47:36;27.00;;;5.17;;
29634;SDS011;16557;54.762;56.068;2023-05-20T04:50:16;8.60;;;3.15;;
29634;SDS011;16557;54.762;56.068;2023-05-20T04:52:57;10.03;;;2.95;;
29634;SDS011;16557;54.762;56.068;2023-05-20T04:55:36;16.37;;;5.37;;
29634;SDS011;16557;54.762;56.068;2023-05-20T04:58:16;11.95;;;6.97;;
29634;SDS011;16557;54.762;56.068;2023-05-20T05:01:03;16.85;;;7.20;;
29634;SDS011;16557;54.762;56.068;2023-05-20T05:03:43;17.75;;;5.30;;
29634;SDS011;16557;54.762;56.068;2023-05-20T05:06:27;18.10;;;4.95;;
29634;SDS011;16557;54.762;56.068;2023-05-20T05:09:06;9.73;;;4.12;;
29634;SDS011;16557;54.762;56.068;2023-05-20T05:11:46;9.93;;;3.33;;
29634;SDS011;16557;54.762;56.068;2023-05-20T05:14:26;8.35;;;3.22;;
29634;SDS011;16557;54.762;56.068;2023-05-20T05:17:05;14.18;;;2.95;;
29634;SDS011;16557;54.762;56.068;2023-05-20T05:19:49;5.12;;;2.50;;
29634;SDS011;16557;54.762;56.068;2023-05-20T05:22:29;13.15;;;3.20;;
29634;SDS011;16557;54.762;56.068;2023-05-20T05:25:10;10.18;;;2.55;;
29634;SDS011;16557;54.762;56.068;2023-05-20T05:27:56;9.00;;;3.20;;
29634;SDS011;16557;54.762;56.068;2023-05-20T05:30:42;8.38;;;2.80;;
29634;SDS011;16557;54.762;56.068;2023-05-20T05:33:21;11.12;;;2.22;;
29634;SDS011;16557;54.762;56.068;2023-05-20T05:36:01;7.70;;;2.10;;
29634;SDS011;16557;54.762;56.068;2023-05-20T05:38:49;6.17;;;1.90;;
29634;SDS011;16557;54.762;56.068;2023-05-20T05:41:30;10.10;;;2.05;;
29634;SDS011;16557;54.762;56.068;2023-05-20T05:44:10;11.65;;;1.80;;
29634;SDS011;16557;54.762;56.068;2023-05-20T05:46:55;8.35;;;2.70;;
29634;SDS011;16557;54.762;56.068;2023-05-20T05:49:35;9.05;;;2.10;;
29634;SDS011;16557;54.762;56.068;2023-05-20T05:52:16;9.53;;;1.70;;
29634;SDS011;16557;54.762;56.068;2023-05-20T05:54:56;6.85;;;1.72;;
29634;SDS011;16557;54.762;56.068;2023-05-20T05:57:35;7.70;;;1.52;;
29634;SDS011;16557;54.762;56.068;2023-05-20T06:00:15;10.72;;;1.90;;
29634;SDS011;16557;54.762;56.068;2023-05-20T06:02:55;6.62;;;2.10;;
29634;SDS011;16557;54.762;56.068;2023-05-20T06:05:35;9.20;;;1.90;;
29634;SDS011;16557;54.762;56.068;2023-05-20T06:08:15;5.65;;;1.72;;
29634;SDS011;16557;54.762;56.068;2023-05-20T06:10:54;9.30;;;1.87;;
29634;SDS011;16557;54.762;56.068;2023-05-20T06:13:34;3.60;;;1.42;;
29634;SDS011;16557;54.762;56.068;2023-05-20T06:16:14;14.00;;;2.02;;
29634;SDS011;16557;54.762;56.068;2023-05-20T06:19:00;7.75;;;2.12;;
29634;SDS011;16557;54.762;56.068;2023-05-20T06:21:41;10.32;;;1.67;;
29634;SDS011;16557;54.762;56.068;2023-05-20T06:24:27;6.05;;;2.10;;
29634;SDS011;16557;54.762;56.068;2023-05-20T06:27:06;9.15;;;2.55;;
29634;SDS011;16557;54.762;56.068;2023-05-20T06:29:36;8.90;;;2.17;;
29634;SDS011;16557;54.762;56.068;2023-05-20T06:32:15;13.15;;;2.10;;
29634;SDS011;16557;54.762;56.068;2023-05-20T06:34:55;13.43;;;2.05;;
29634;SDS011;16557;54.762;56.068;2023-05-20T06:37:41;8.95;;;2.52;;
29634;SDS011;16557;54.762;56.068;2023-05-20T06:40:27;13.43;;;2.77;;
29634;SDS011;16557;54.762;56.068;2023-05-20T06:43:06;8.83;;;2.30;;
29634;SDS011;16557;54.762;56.068;2023-05-20T06:45:46;8.53;;;2.02;;
29634;SDS011;16557;54.762;56.068;2023-05-20T06:48:32;7.83;;;2.52;;
29634;SDS011;16557;54.762;56.068;2023-05-20T06:51:11;8.03;;;1.70;;
29634;SDS011;16557;54.762;56.068;2023-05-20T06:53:51;7.47;;;1.80;;
29634;SDS011;16557;54.762;56.068;2023-05-20T06:56:31;7.78;;;2.00;;
29634;SDS011;16557;54.762;56.068;2023-05-20T06:59:20;5.35;;;1.90;;
29634;SDS011;16557;54.762;56.068;2023-05-20T07:02:00;10.70;;;1.75;;
29634;SDS011;16557;54.762;56.068;2023-05-20T07:04:46;6.57;;;2.10;;
29634;SDS011;16557;54.762;56.068;2023-05-20T07:07:26;9.80;;;2.98;;
29634;SDS011;16557;54.762;56.068;2023-05-20T07:10:07;9.85;;;2.20;;
29634;SDS011;16557;54.762;56.068;2023-05-20T07:12:48;11.83;;;2.27;;
29634;SDS011;16557;54.762;56.068;2023-05-20T07:15:29;9.08;;;2.10;;
29634;SDS011;16557;54.762;56.068;2023-05-20T07:18:13;8.50;;;1.70;;
29634;SDS011;16557;54.762;56.068;2023-05-20T07:20:52;11.80;;;1.98;;
29634;SDS011;16557;54.762;56.068;2023-05-20T07:23:38;10.05;;;2.65;;
29634;SDS011;16557;54.762;56.068;2023-05-20T07:26:18;10.00;;;2.58;;
29634;SDS011;16557;54.762;56.068;2023-05-20T07:28:58;10.32;;;2.00;;
29634;SDS011;16557;54.762;56.068;2023-05-20T07:31:38;16.02;;;2.52;;
29634;SDS011;16557;54.762;56.068;2023-05-20T07:34:19;12.20;;;2.22;;
29634;SDS011;16557;54.762;56.068;2023-05-20T07:36:59;10.72;;;1.95;;
29634;SDS011;16557;54.762;56.068;2023-05-20T07:39:39;5.35;;;2.22;;
29634;SDS011;16557;54.762;56.068;2023-05-20T07:42:18;8.28;;;1.80;;
29634;SDS011;16557;54.762;56.068;2023-05-20T07:44:58;5.37;;;2.20;;
29634;SDS011;16557;54.762;56.068;2023-05-20T07:47:37;7.25;;;2.30;;
29634;SDS011;16557;54.762;56.068;2023-05-20T07:50:23;7.50;;;2.00;;
29634;SDS011;16557;54.762;56.068;2023-05-20T07:53:03;7.65;;;1.80;;
29634;SDS011;16557;54.762;56.068;2023-05-20T07:55:43;4.87;;;1.77;;
29634;SDS011;16557;54.762;56.068;2023-05-20T07:58:22;6.58;;;2.00;;
29634;SDS011;16557;54.762;56.068;2023-05-20T08:01:08;11.50;;;2.10;;
29634;SDS011;16557;54.762;56.068;2023-05-20T08:03:49;10.88;;;1.55;;
29634;SDS011;16557;54.762;56.068;2023-05-20T08:06:33;5.60;;;1.45;;
29634;SDS011;16557;54.762;56.068;2023-05-20T08:09:13;6.53;;;2.00;;
29634;SDS011;16557;54.762;56.068;2023-05-20T08:11:53;4.90;;;1.70;;
29634;SDS011;16557;54.762;56.068;2023-05-20T08:14:36;10.45;;;2.30;;
29634;SDS011;16557;54.762;56.068;2023-05-20T08:17:16;4.00;;;2.33;;
29634;SDS011;16557;54.762;56.068;2023-05-20T08:20:02;12.80;;;2.10;;
29634;SDS011;16557;54.762;56.068;2023-05-20T08:22:42;5.37;;;1.95;;
29634;SDS011;16557;54.762;56.068;2023-05-20T08:25:22;8.60;;;2.40;;
29634;SDS011;16557;54.762;56.068;2023-05-20T08:28:03;13.13;;;2.65;;
29634;SDS011;16557;54.762;56.068;2023-05-20T08:30:45;9.90;;;2.22;;
29634;SDS011;16557;54.762;56.068;2023-05-20T08:33:32;5.40;;;1.98;;
29634;SDS011;16557;54.762;56.068;2023-05-20T08:36:18;9.13;;;2.20;;
29634;SDS011;16557;54.762;56.068;2023-05-20T08:39:07;9.48;;;2.10;;
29634;SDS011;16557;54.762;56.068;2023-05-20T08:41:47;10.93;;;2.90;;
29634;SDS011;16557;54.762;56.068;2023-05-20T08:44:32;9.60;;;2.60;;
29634;SDS011;16557;54.762;56.068;2023-05-20T08:47:12;8.00;;;2.22;;
29634;SDS011;16557;54.762;56.068;2023-05-20T08:49:58;6.55;;;2.52;;
29634;SDS011;16557;54.762;56.068;2023-05-20T08:52:42;6.12;;;1.85;;
29634;SDS011;16557;54.762;56.068;2023-05-20T08:55:23;6.87;;;1.80;;
29634;SDS011;16557;54.762;56.068;2023-05-20T08:58:06;14.30;;;2.17;;
29634;SDS011;16557;54.762;56.068;2023-05-20T09:00:46;14.05;;;2.83;;
29634;SDS011;16557;54.762;56.068;2023-05-20T09:03:26;9.35;;;2.58;;
29634;SDS011;16557;54.762;56.068;2023-05-20T09:06:06;11.48;;;2.20;;
29634;SDS011;16557;54.762;56.068;2023-05-20T09:08:52;13.58;;;2.45;;
29634;SDS011;16557;54.762;56.068;2023-05-20T09:11:32;9.35;;;1.82;;
29634;SDS011;16557;54.762;56.068;2023-05-20T09:14:13;10.32;;;1.95;;
29634;SDS011;16557;54.762;56.068;2023-05-20T09:16:53;6.42;;;2.05;;
29634;SDS011;16557;54.762;56.068;2023-05-20T09:19:33;12.33;;;2.45;;
29634;SDS011;16557;54.762;56.068;2023-05-20T09:22:23;11.73;;;2.15;;
29634;SDS011;16557;54.762;56.068;2023-05-20T09:25:04;6.58;;;2.10;;
29634;SDS011;16557;54.762;56.068;2023-05-20T09:27:51;11.05;;;2.15;;
29634;SDS011;16557;54.762;56.068;2023-05-20T09:30:31;4.85;;;2.12;;
29634;SDS011;16557;54.762;56.068;2023-05-20T09:33:17;12.33;;;2.02;;
29634;SDS011;16557;54.762;56.068;2023-05-20T09:36:03;5.12;;;1.98;;
29634;SDS011;16557;54.762;56.068;2023-05-20T09:38:51;6.97;;;2.47;;
29634;SDS011;16557;54.762;56.068;2023-05-20T09:41:37;8.10;;;2.40;;
29634;SDS011;16557;54.762;56.068;2023-05-20T09:44:26;5.97;;;2.80;;
29634;SDS011;16557;54.762;56.068;2023-05-20T09:47:12;9.28;;;4.15;;
29634;SDS011;16557;54.762;56.068;2023-05-20T09:49:52;8.98;;;2.65;;
29634;SDS011;16557;54.762;56.068;2023-05-20T09:52:36;8.85;;;1.98;;
29634;SDS011;16557;54.762;56.068;2023-05-20T09:55:16;9.88;;;2.60;;
29634;SDS011;16557;54.762;56.068;2023-05-20T09:58:01;10.08;;;2.62;;
29634;SDS011;16557;54.762;56.068;2023-05-20T10:00:41;9.73;;;2.42;;
29634;SDS011;16557;54.762;56.068;2023-05-20T10:03:21;7.45;;;2.12;;
29634;SDS011;16557;54.762;56.068;2023-05-20T10:06:18;8.38;;;2.02;;
29634;SDS011;16557;54.762;56.068;2023-05-20T10:12:04;5.55;;;2.30;;
29634;SDS011;16557;54.762;56.068;2023-05-20T10:18:14;5.25;;;1.90;;
29634;SDS011;16557;54.762;56.068;2023-05-20T10:21:13;9.98;;;2.22;;
29634;SDS011;16557;54.762;56.068;2023-05-20T10:24:04;5.90;;;2.58;;
29634;SDS011;16557;54.762;56.068;2023-05-20T10:26:53;12.13;;;2.30;;
29634;SDS011;16557;54.762;56.068;2023-05-20T10:29:28;6.65;;;2.27;;
29634;SDS011;16557;54.762;56.068;2023-05-20T10:32:26;10.35;;;2.25;;
29634;SDS011;16557;54.762;56.068;2023-05-20T10:35:29;5.70;;;2.00;;
29634;SDS011;16557;54.762;56.068;2023-05-20T10:38:10;13.15;;;3.17;;
29634;SDS011;16557;54.762;56.068;2023-05-20T10:40:51;6.87;;;4.35;;
29634;SDS011;16557;54.762;56.068;2023-05-20T10:43:31;7.05;;;1.92;;
29634;SDS011;16557;54.762;56.068;2023-05-20T10:46:16;7.15;;;2.47;;
29634;SDS011;16557;54.762;56.068;2023-05-20T10:49:02;9.13;;;1.70;;
29634;SDS011;16557;54.762;56.068;2023-05-20T10:51:41;10.20;;;2.17;;
29634;SDS011;16557;54.762;56.068;2023-05-20T10:54:24;8.15;;;2.30;;
29634;SDS011;16557;54.762;56.068;2023-05-20T10:57:06;11.20;;;2.42;;
29634;SDS011;16557;54.762;56.068;2023-05-20T10:59:58;9.15;;;1.70;;
29634;SDS011;16557;54.762;56.068;2023-05-20T11:02:38;7.92;;;2.12;;
29634;SDS011;16557;54.762;56.068;2023-05-20T11:05:19;12.23;;;2.12;;
29634;SDS011;16557;54.762;56.068;2023-05-20T11:08:00;7.58;;;2.42;;
29634;SDS011;16557;54.762;56.068;2023-05-20T11:11:00;10.23;;;2.58;;
29634;SDS011;16557;54.762;56.068;2023-05-20T11:13:40;11.63;;;3.35;;
29634;SDS011;16557;54.762;56.068;2023-05-20T11:16:26;7.12;;;2.30;;
29634;SDS011;16557;54.762;56.068;2023-05-20T11:19:15;6.67;;;2.45;;
29634;SDS011;16557;54.762;56.068;2023-05-20T11:21:57;7.17;;;2.77;;
29634;SDS011;16557;54.762;56.068;2023-05-20T11:24:36;14.65;;;2.70;;
29634;SDS011;16557;54.762;56.068;2023-05-20T11:27:16;10.40;;;2.20;;
29634;SDS011;16557;54.762;56.068;2023-05-20T11:29:57;10.48;;;2.20;;
29634;SDS011;16557;54.762;56.068;2023-05-20T11:32:37;8.30;;;1.95;;
29634;SDS011;16557;54.762;56.068;2023-05-20T11:35:21;9.53;;;2.27;;
29634;SDS011;16557;54.762;56.068;2023-05-20T11:38:04;9.60;;;2.40;;
29634;SDS011;16557;54.762;56.068;2023-05-20T11:40:51;6.37;;;1.70;;
29634;SDS011;16557;54.762;56.068;2023-05-20T11:43:33;6.33;;;1.50;;
29634;SDS011;16557;54.762;56.068;2023-05-20T11:46:19;11.50;;;2.65;;
29634;SDS011;16557;54.762;56.068;2023-05-20T11:48:59;5.17;;;1.72;;
29634;SDS011;16557;54.762;56.068;2023-05-20T11:51:42;8.73;;;1.95;;
29634;SDS011;16557;54.762;56.068;2023-05-20T11:54:22;11.28;;;3.83;;
29634;SDS011;16557;54.762;56.068;2023-05-20T11:57:02;5.97;;;2.12;;
29634;SDS011;16557;54.762;56.068;2023-05-20T11:59:48;9.08;;;1.90;;
29634;SDS011;16557;54.762;56.068;2023-05-20T12:02:28;6.62;;;2.10;;
29634;SDS011;16557;54.762;56.068;2023-05-20T12:05:08;6.65;;;1.95;;
29634;SDS011;16557;54.762;56.068;2023-05-20T12:07:48;4.20;;;2.33;;
29634;SDS011;16557;54.762;56.068;2023-05-20T12:10:27;8.63;;;1.85;;
29634;SDS011;16557;54.762;56.068;2023-05-20T12:13:08;5.58;;;2.92;;
29634;SDS011;16557;54.762;56.068;2023-05-20T12:15:52;6.33;;;1.70;;
29634;SDS011;16557;54.762;56.068;2023-05-20T12:18:36;10.32;;;1.90;;
29634;SDS011;16557;54.762;56.068;2023-05-20T12:21:19;11.63;;;2.25;;
29634;SDS011;16557;54.762;56.068;2023-05-20T12:23:59;9.83;;;2.40;;
29634;SDS011;16557;54.762;56.068;2023-05-20T12:26:40;9.58;;;4.10;;
29634;SDS011;16557;54.762;56.068;2023-05-20T12:29:20;6.53;;;2.22;;
29634;SDS011;16557;54.762;56.068;2023-05-20T12:32:00;4.67;;;2.37;;
29634;SDS011;16557;54.762;56.068;2023-05-20T12:34:41;6.72;;;1.80;;
29634;SDS011;16557;54.762;56.068;2023-05-20T12:37:26;10.75;;;2.22;;
29634;SDS011;16557;54.762;56.068;2023-05-20T12:40:12;11.97;;;2.50;;
29634;SDS011;16557;54.762;56.068;2023-05-20T12:42:52;11.50;;;2.77;;
29634;SDS011;16557;54.762;56.068;2023-05-20T12:45:31;6.92;;;2.05;;
29634;SDS011;16557;54.762;56.068;2023-05-20T12:48:11;16.00;;;2.83;;
29634;SDS011;16557;54.762;56.068;2023-05-20T12:50:52;8.40;;;2.75;;
29634;SDS011;16557;54.762;56.068;2023-05-20T12:53:21;9.35;;;2.17;;
29634;SDS011;16557;54.762;56.068;2023-05-20T12:56:04;9.58;;;2.20;;
29634;SDS011;16557;54.762;56.068;2023-05-20T12:58:45;6.87;;;1.87;;
29634;SDS011;16557;54.762;56.068;2023-05-20T13:01:29;7.35;;;2.17;;
29634;SDS011;16557;54.762;56.068;2023-05-20T13:04:08;7.15;;;2.22;;
29634;SDS011;16557;54.762;56.068;2023-05-20T13:06:48;12.47;;;2.37;;
29634;SDS011;16557;54.762;56.068;2023-05-20T13:09:28;5.62;;;1.85;;
29634;SDS011;16557;54.762;56.068;2023-05-20T13:12:13;5.70;;;2.17;;
29634;SDS011;16557;54.762;56.068;2023-05-20T13:14:52;11.43;;;3.20;;
29634;SDS011;16557;54.762;56.068;2023-05-20T13:17:32;8.73;;;2.50;;
29634;SDS011;16557;54.762;56.068;2023-05-20T13:20:22;9.88;;;2.62;;
29634;SDS011;16557;54.762;56.068;2023-05-20T13:23:01;8.93;;;2.72;;
29634;SDS011;16557;54.762;56.068;2023-05-20T13:25:41;10.88;;;2.08;;
29634;SDS011;16557;54.762;56.068;2023-05-20T13:28:27;9.40;;;2.60;;
29634;SDS011;16557;54.762;56.068;2023-05-20T13:31:06;6.87;;;2.45;;
29634;SDS011;16557;54.762;56.068;2023-05-20T13:33:46;6.75;;;2.55;;
29634;SDS011;16557;54.762;56.068;2023-05-20T13:36:26;7.47;;;2.20;;
29634;SDS011;16557;54.762;56.068;2023-05-20T13:39:05;6.65;;;2.50;;
29634;SDS011;16557;54.762;56.068;2023-05-20T13:41:46;8.95;;;2.50;;
29634;SDS011;16557;54.762;56.068;2023-05-20T13:44:26;15.95;;;2.40;;
29634;SDS011;16557;54.762;56.068;2023-05-20T13:47:05;13.88;;;4.50;;
29634;SDS011;16557;54.762;56.068;2023-05-20T13:49:45;13.58;;;3.98;;
29634;SDS011;16557;54.762;56.068;2023-05-20T13:52:29;11.15;;;3.77;;
29634;SDS011;16557;54.762;56.068;2023-05-20T13:55:09;5.22;;;2.30;;
29634;SDS011;16557;54.762;56.068;2023-05-20T13:57:48;6.97;;;2.05;;
29634;SDS011;16557;54.762;56.068;2023-05-20T14:00:36;7.95;;;4.22;;
29634;SDS011;16557;54.762;56.068;2023-05-20T14:03:35;12.03;;;5.28;;
29634;SDS011;16557;54.762;56.068;2023-05-20T14:06:16;11.57;;;5.35;;
29634;SDS011;16557;54.762;56.068;2023-05-20T14:08:56;10.05;;;4.15;;
29634;SDS011;16557;54.762;56.068;2023-05-20T14:11:37;9.73;;;3.27;;
29634;SDS011;16557;54.762;56.068;2023-05-20T14:14:18;11.97;;;2.90;;
29634;SDS011;16557;54.762;56.068;2023-05-20T14:16:58;36.33;;;30.50;;
29634;SDS011;16557;54.762;56.068;2023-05-20T14:19:38;14.70;;;8.58;;
29634;SDS011;16557;54.762;56.068;2023-05-20T14:22:18;9.25;;;3.60;;
29634;SDS011;16557;54.762;56.068;2023-05-20T14:25:02;7.83;;;2.77;;
29634;SDS011;16557;54.762;56.068;2023-05-20T14:27:42;6.47;;;2.60;;
29634;SDS011;16557;54.762;56.068;2023-05-20T14:30:22;10.25;;;3.70;;
29634;SDS011;16557;54.762;56.068;2023-05-20T14:33:23;11.43;;;4.35;;
29634;SDS011;16557;54.762;56.068;2023-05-20T14:36:09;11.88;;;4.15;;
29634;SDS011;16557;54.762;56.068;2023-05-20T14:38:59;18.87;;;10.98;;
29634;SDS011;16557;54.762;56.068;2023-05-20T14:41:46;48.08;;;36.20;;
29634;SDS011;16557;54.762;56.068;2023-05-20T14:44:26;21.30;;;14.98;;
29634;SDS011;16557;54.762;56.068;2023-05-20T14:47:05;15.90;;;9.50;;
29634;SDS011;16557;54.762;56.068;2023-05-20T14:49:45;14.10;;;7.85;;
29634;SDS011;16557;54.762;56.068;2023-05-20T14:52:26;17.37;;;7.03;;
29634;SDS011;16557;54.762;56.068;2023-05-20T14:55:07;11.97;;;5.55;;
29634;SDS011;16557;54.762;56.068;2023-05-20T14:57:47;9.48;;;4.97;;
29634;SDS011;16557;54.762;56.068;2023-05-20T15:00:27;19.87;;;6.83;;
29634;SDS011;16557;54.762;56.068;2023-05-20T15:03:09;21.85;;;8.23;;
29634;SDS011;16557;54.762;56.068;2023-05-20T15:05:48;20.00;;;9.68;;
29634;SDS011;16557;54.762;56.068;2023-05-20T15:08:29;20.77;;;8.70;;
29634;SDS011;16557;54.762;56.068;2023-05-20T15:11:09;24.92;;;9.45;;
29634;SDS011;16557;54.762;56.068;2023-05-20T15:13:49;29.92;;;11.63;;
29634;SDS011;16557;54.762;56.068;2023-05-20T15:16:28;28.83;;;13.85;;
29634;SDS011;16557;54.762;56.068;2023-05-20T15:19:08;27.30;;;14.60;;
29634;SDS011;16557;54.762;56.068;2023-05-20T15:21:48;29.50;;;12.82;;
29634;SDS011;16557;54.762;56.068;2023-05-20T15:24:29;22.02;;;10.95;;
29634;SDS011;16557;54.762;56.068;2023-05-20T15:27:15;28.50;;;15.58;;
29634;SDS011;16557;54.762;56.068;2023-05-20T15:29:56;27.22;;;18.12;;
29634;SDS011;16557;54.762;56.068;2023-05-20T15:32:40;69.10;;;44.25;;
29634;SDS011;16557;54.762;56.068;2023-05-20T15:35:21;37.80;;;29.75;;
29634;SDS011;16557;54.762;56.068;2023-05-20T15:38:00;50.30;;;30.92;;
29634;SDS011;16557;54.762;56.068;2023-05-20T15:40:44;31.35;;;19.07;;
29634;SDS011;16557;54.762;56.068;2023-05-20T15:43:31;39.38;;;26.07;;
29634;SDS011;16557;54.762;56.068;2023-05-20T15:46:11;37.70;;;24.90;;
29634;SDS011;16557;54.762;56.068;2023-05-20T15:48:55;78.60;;;56.50;;
29634;SDS011;16557;54.762;56.068;2023-05-20T15:51:41;78.25;;;62.80;;
29634;SDS011;16557;54.762;56.068;2023-05-20T15:54:26;118.53;;;87.67;;
29634;SDS011;16557;54.762;56.068;2023-05-20T15:57:06;44.83;;;25.25;;
29634;SDS011;16557;54.762;56.068;2023-05-20T15:59:46;30.95;;;18.25;;
29634;SDS011;16557;54.762;56.068;2023-05-20T16:02:37;53.60;;;27.40;;